Time;durP1;ratioP1;P1;durP2;ratioP2;P2;SDS_P1;SDS_P2;PMS_P1;PMS_P2;Temp;Humidity;BMP_temperature;BMP_pressure;BME280_temperature;BME280_humidity;BME280_pressure;Samples;Min_cycle;Max_cycle;Signal;HPM_P1;HPM_P2
2023/11/05 00:00:05;;;;;;;;;;;;;;;9.80;75.25;97620.97;4058012;29;20018;-68
2023/11/05 00:02:16;;;;;;;;;;;;;;;9.80;75.25;97618.28;4057311;29;19953;-68
2023/11/05 00:04:22;;;;;;;;;;;;;;;9.80;75.51;97622.84;4057502;29;20046;-67
2023/11/05 00:06:24;;;;;;;;;;;;;;;9.79;75.35;97619.31;4057004;29;20019;-67
2023/11/05 00:08:26;;;;;;;;;;;;;;;9.80;75.34;97610.19;4057287;29;20438;-68
2023/11/05 00:10:27;;;;;;;;;;;;;;;9.79;75.61;97621.22;4057329;29;20031;-67
2023/11/05 00:12:29;;;;;;;;;;;;;;;9.79;75.56;97607.75;4056798;29;20023;-67
2023/11/05 00:14:32;;;;;;;;;;;;;;;9.80;75.44;97606.69;4057613;29;20034;-67
2023/11/05 00:16:36;;;;;;;;;;;;;;;9.80;75.78;97604.00;4056402;29;19931;-67
2023/11/05 00:18:38;;;;;;;;;;;;;;;9.81;75.69;97605.59;4059623;29;20023;-67
2023/11/05 00:20:43;;;;;;;;;;;;;;;9.80;75.56;97604.78;4060555;29;19963;-67
2023/11/05 00:22:45;;;;;;;;;;;;;;;9.80;75.56;97604.78;4060134;29;20021;-67
2023/11/05 00:24:46;;;;;;;;;;;;;;;9.81;75.69;97602.91;4028782;29;20030;-67
2023/11/05 00:26:48;;;;;;;;;;;;;;;9.81;75.85;97611.81;4059784;29;20014;-67
2023/11/05 00:28:50;;;;;;;;;;;;;;;9.82;75.66;97604.53;4058953;29;20066;-67
2023/11/05 00:30:52;;;;;;;;;;;;;;;9.82;75.51;97594.56;4042805;29;20502;-67
2023/11/05 00:32:56;;;;;;;;;;;;;;;9.83;75.67;97600.78;4028127;29;19947;-68
2023/11/05 00:34:57;;;;;;;;;;;;;;;9.83;75.50;97592.72;4060369;29;20018;-69
2023/11/05 00:36:59;;;;;;;;;;;;;;;9.83;75.36;97590.81;4059353;29;20030;-67
2023/11/05 00:39:02;;;;;;;;;;;;;;;9.83;75.57;97587.31;4060685;29;20018;-67
2023/11/05 00:41:04;;;;;;;;;;;;;;;9.83;75.56;97587.31;4059851;29;20034;-67
2023/11/05 00:43:06;;;;;;;;;;;;;;;9.82;75.78;97588.38;4059785;29;20143;-68
2023/11/05 00:45:08;;;;;;;;;;;;;;;9.82;75.79;97589.19;4042770;29;20022;-67
2023/11/05 00:47:10;;;;;;;;;;;;;;;9.83;75.62;97587.31;4060292;29;20030;-67
2023/11/05 00:49:13;;;;;;;;;;;;;;;9.83;75.34;97584.63;4043488;29;20494;-68
2023/11/05 00:51:16;;;;;;;;;;;;;;;9.82;75.23;97581.09;4059118;29;20010;-67
2023/11/05 00:53:18;;;;;;;;;;;;;;;9.82;75.33;97586.47;4043265;29;20023;-67
2023/11/05 00:55:19;;;;;;;;;;;;;;;9.82;75.60;97575.69;4060204;29;20458;-67
2023/11/05 00:57:21;;;;;;;;;;;;;;;9.82;75.79;97581.09;4059993;29;19931;-67
2023/11/05 00:59:23;;;;;;;;;;;;;;;9.82;75.82;97580.28;4059802;29;20025;-67
2023/11/05 01:01:24;;;;;;;;;;;;;;;9.82;75.85;97572.19;4043828;29;20478;-67
2023/11/05 01:03:26;;;;;;;;;;;;;;;9.82;75.95;97570.31;4041354;29;20409;-68
2023/11/05 01:05:30;;;;;;;;;;;;;;;9.84;75.70;97575.44;4059780;29;20026;-68
2023/11/05 01:07:32;;;;;;;;;;;;;;;9.82;76.03;97575.69;4041573;29;20022;-67
2023/11/05 01:09:34;;;;;;;;;;;;;;;9.83;75.98;97577.34;4059284;29;19956;-67
2023/11/05 01:11:37;;;;;;;;;;;;;;;9.83;76.03;97571.16;4027611;29;20011;-67
2023/11/05 01:13:39;;;;;;;;;;;;;;;9.84;75.71;97575.44;4059111;29;20022;-67
2023/11/05 01:15:40;;;;;;;;;;;;;;;9.84;76.06;97575.44;4060438;29;20026;-68
2023/11/05 01:17:42;;;;;;;;;;;;;;;9.83;76.04;97577.34;4060213;29;20402;-67
2023/11/05 01:19:44;;;;;;;;;;;;;;;9.85;76.04;97575.19;4060029;29;20014;-68
2023/11/05 01:21:47;;;;;;;;;;;;;;;9.85;76.07;97563.63;4027527;29;20586;-67
2023/11/05 01:23:49;;;;;;;;;;;;;;;9.85;75.74;97564.41;4042748;29;20892;-67
2023/11/05 01:25:52;;;;;;;;;;;;;;;9.86;75.82;97559.88;4057750;29;20013;-67
2023/11/05 01:27:54;;;;;;;;;;;;;;;9.87;75.95;97566.88;4059440;29;20029;-67
2023/11/05 01:29:55;;;;;;;;;;;;;;;9.87;75.96;97558.78;4059331;29;19938;-68
2023/11/05 01:31:57;;;;;;;;;;;;;;;9.87;76.22;97561.47;4058274;29;19928;-67
2023/11/05 01:33:59;;;;;;;;;;;;;;;9.87;76.06;97564.16;4059311;29;20382;-67
2023/11/05 01:36:03;;;;;;;;;;;;;;;9.86;76.09;97566.06;4042411;29;20014;-68
2023/11/05 01:38:06;;;;;;;;;;;;;;;9.87;76.57;97562.31;4058919;29;20041;-67
2023/11/05 01:40:09;;;;;;;;;;;;;;;9.88;76.67;97573.91;4059273;29;20033;-67
2023/11/05 01:42:11;;;;;;;;;;;;;;;9.89;76.53;97562.03;4042189;29;20536;-67
2023/11/05 01:44:13;;;;;;;;;;;;;;;9.88;76.33;97552.34;4043028;29;20018;-67
2023/11/05 01:46:14;;;;;;;;;;;;;;;9.87;76.41;97556.91;4057556;29;20023;-67
2023/11/05 01:48:16;;;;;;;;;;;;;;;9.87;76.70;97556.91;4058988;29;20451;-67
2023/11/05 01:50:18;;;;;;;;;;;;;;;9.88;77.01;97555.03;4058545;29;19931;-68
2023/11/05 01:52:20;;;;;;;;;;;;;;;9.89;77.19;97551.25;4058809;29;20018;-67
2023/11/05 01:54:23;;;;;;;;;;;;;;;9.88;77.59;97552.34;4057546;29;20034;-68
2023/11/05 01:56:26;;;;;;;;;;;;;;;9.87;78.14;97554.22;4042172;29;20039;-67
2023/11/05 01:58:28;;;;;;;;;;;;;;;9.87;78.34;97548.00;4042849;29;20435;-67
2023/11/05 02:00:29;;;;;;;;;;;;;;;9.86;79.09;97547.19;4058147;29;20022;-68
2023/11/05 02:02:31;;;;;;;;;;;;;;;9.85;79.58;97550.94;4058141;29;20686;-68
2023/11/05 02:04:33;;;;;;;;;;;;;;;9.85;79.27;97548.25;4043291;29;20026;-68
2023/11/05 02:06:35;;;;;;;;;;;;;;;9.85;79.71;97548.25;4057126;29;20031;-68
2023/11/05 02:08:38;;;;;;;;;;;;;;;9.85;79.95;97553.63;4041221;29;20023;-67
2023/11/05 02:10:40;;;;;;;;;;;;;;;9.84;80.11;97549.34;4059095;29;19966;-67
2023/11/05 02:12:55;;;;;;;;;;;;;;;9.84;80.54;97545.81;4058651;29;20027;-68
2023/11/05 02:14:57;;;;;;;;;;;;;;;9.84;80.60;97553.88;4027627;29;20047;-67
2023/11/05 02:16:59;;;;;;;;;;;;;;;9.82;80.98;97556.03;4028197;29;20039;-67
2023/11/05 02:19:01;;;;;;;;;;;;;;;9.83;80.97;97554.97;4058358;29;20481;-67
2023/11/05 02:21:04;;;;;;;;;;;;;;;9.82;81.19;97554.13;4038332;29;20497;-68
2023/11/05 02:23:06;;;;;;;;;;;;;;;9.76;81.35;97541.66;4057498;29;20026;-68
2023/11/05 02:25:10;;;;;;;;;;;;;;;9.82;81.19;97548.75;4058260;29;20596;-68
2023/11/05 02:27:12;;;;;;;;;;;;;;;9.82;81.49;97551.44;4024946;29;20034;-67
2023/11/05 02:29:14;;;;;;;;;;;;;;;9.81;81.86;97552.53;4040432;29;20031;-67
2023/11/05 02:31:15;;;;;;;;;;;;;;;9.81;81.93;97557.91;4056320;29;19962;-67
2023/11/05 02:33:17;;;;;;;;;;;;;;;9.80;82.37;97556.28;4042013;29;19928;-67
2023/11/05 02:35:19;;;;;;;;;;;;;;;9.80;82.76;97558.97;4057149;29;20367;-67
2023/11/05 02:37:19;;;;;;;;;;;;;;;9.79;82.82;97551.94;4057425;29;20030;-68
2023/11/05 02:39:21;;;;;;;;;;;;;;;9.79;82.75;97551.94;4058290;29;19927;-67
2023/11/05 02:41:25;;;;;;;;;;;;;;;9.79;83.06;97553.84;4057514;29;20014;-67
2023/11/05 02:43:27;;;;;;;;;;;;;;;9.78;83.35;97550.34;4058252;29;20025;-66
2023/11/05 02:45:29;;;;;;;;;;;;;;;9.80;83.60;97550.88;4026272;29;20022;-67
2023/11/05 02:47:31;;;;;;;;;;;;;;;9.80;83.65;97558.16;4058468;29;20014;-67
2023/11/05 02:49:33;;;;;;;;;;;;;;;9.79;84.09;97553.84;4041367;29;20026;-68
2023/11/05 02:51:35;;;;;;;;;;;;;;;9.80;83.83;97558.16;4041848;29;20019;-67
2023/11/05 02:53:37;;;;;;;;;;;;;;;9.80;84.23;97556.28;4058273;29;20010;-67
2023/11/05 02:55:38;;;;;;;;;;;;;;;9.79;84.33;97553.84;4058068;29;20469;-66
2023/11/05 02:57:42;;;;;;;;;;;;;;;9.79;85.07;97549.25;4057705;29;20009;-68
2023/11/05 02:59:44;;;;;;;;;;;;;;;9.78;85.20;97538.72;4057978;29;20395;-68
2023/11/05 03:01:45;;;;;;;;;;;;;;;9.79;85.25;97537.66;4027181;29;20382;-67
2023/11/05 03:03:47;;;;;;;;;;;;;;;9.78;85.21;97542.25;4056357;29;20022;-67
2023/11/05 03:05:49;;;;;;;;;;;;;;;9.76;85.77;97541.66;4057663;29;20018;-68
2023/11/05 03:07:51;;;;;;;;;;;;;;;9.76;86.06;97548.94;4058278;29;20034;-68
2023/11/05 03:09:53;;;;;;;;;;;;;;;9.75;86.12;97545.44;4025965;29;20014;-67
2023/11/05 03:11:55;;;;;;;;;;;;;;;9.73;86.59;97539.47;4025767;29;19975;-68
2023/11/05 03:13:57;;;;;;;;;;;;;;;9.72;86.83;97544.06;4057386;29;20014;-67
2023/11/05 03:15:59;;;;;;;;;;;;;;;9.72;86.86;97538.66;4040877;29;20018;-67
2023/11/05 03:18:00;;;;;;;;;;;;;;;9.72;86.56;97527.06;4057793;29;20033;-68
2023/11/05 03:20:03;;;;;;;;;;;;;;;9.70;87.02;97535.41;4058565;29;19938;-67
2023/11/05 03:22:06;;;;;;;;;;;;;;;9.70;87.74;97526.50;4056929;29;20039;-68
2023/11/05 03:24:08;;;;;;;;;;;;;;;9.70;87.33;97521.09;4057557;29;20362;-68
2023/11/05 03:26:11;;;;;;;;;;;;;;;9.70;87.40;97521.09;4057432;29;20034;-68
2023/11/05 03:28:13;;;;;;;;;;;;;;;9.71;87.37;97514.66;4058123;29;20026;-67
2023/11/05 03:30:16;;;;;;;;;;;;;;;9.70;87.30;97516.53;4056417;29;20050;-67
2023/11/05 03:32:18;;;;;;;;;;;;;;;9.69;87.72;97508.72;4057850;29;19967;-67
2023/11/05 03:34:20;;;;;;;;;;;;;;;9.69;87.97;97506.81;4057651;29;20054;-67
2023/11/05 03:36:23;;;;;;;;;;;;;;;9.69;88.12;97506.81;4057569;29;20204;-67
2023/11/05 03:38:24;;;;;;;;;;;;;;;9.70;87.73;97510.31;4040988;29;20031;-68
2023/11/05 03:40:26;;;;;;;;;;;;;;;9.69;87.89;97509.53;4026253;29;20023;-67
2023/11/05 03:42:28;;;;;;;;;;;;;;;9.70;87.84;97494.16;4057336;29;20636;-67
2023/11/05 03:44:30;;;;;;;;;;;;;;;9.70;87.85;97494.16;4057485;29;20039;-67
2023/11/05 03:46:34;;;;;;;;;;;;;;;9.69;88.12;97496.03;4057669;29;20255;-68
2023/11/05 03:48:36;;;;;;;;;;;;;;;9.69;88.08;97496.03;4057513;29;20026;-67
2023/11/05 03:50:38;;;;;;;;;;;;;;;9.68;88.34;97494.41;4025717;29;20038;-67
2023/11/05 03:52:40;;;;;;;;;;;;;;;9.69;88.32;97495.25;4059145;29;20405;-68
2023/11/05 03:54:42;;;;;;;;;;;;;;;9.67;88.41;97495.50;4060147;29;20064;-67
2023/11/05 03:56:44;;;;;;;;;;;;;;;9.66;88.28;97496.53;4024861;29;20026;-68
2023/11/05 03:58:46;;;;;;;;;;;;;;;9.66;88.72;97504.63;4044383;29;20527;-68
2023/11/05 04:00:48;;;;;;;;;;;;;;;9.66;88.74;97506.53;4058924;29;20845;-67
2023/11/05 04:02:52;;;;;;;;;;;;;;;9.65;88.63;97502.19;4060452;29;20017;-67
2023/11/05 04:04:54;;;;;;;;;;;;;;;9.65;89.00;97488.72;4039622;29;20026;-67
2023/11/05 04:06:56;;;;;;;;;;;;;;;9.63;88.70;97488.97;4060771;29;20014;-67
2023/11/05 04:08:57;;;;;;;;;;;;;;;9.64;88.75;97484.38;4060109;29;20022;-67
2023/11/05 04:10:59;;;;;;;;;;;;;;;9.64;88.25;97484.38;4060452;29;19942;-67
2023/11/05 04:13:01;;;;;;;;;;;;;;;9.65;88.27;97499.50;4060874;29;20437;-67
2023/11/05 04:15:06;;;;;;;;;;;;;;;9.63;88.51;97494.34;4060953;29;20034;-67
2023/11/05 04:17:08;;;;;;;;;;;;;;;9.62;88.91;97497.28;4060248;29;20463;-67
2023/11/05 04:19:12;;;;;;;;;;;;;;;9.62;88.55;97495.41;4060132;29;20357;-67
2023/11/05 04:21:14;;;;;;;;;;;;;;;9.62;88.82;97492.72;4060141;29;20009;-67
2023/11/05 04:23:16;;;;;;;;;;;;;;;9.61;89.09;97493.78;4060786;29;20022;-67
2023/11/05 04:25:18;;;;;;;;;;;;;;;9.62;89.32;97494.59;4059664;29;20025;-67
2023/11/05 04:27:20;;;;;;;;;;;;;;;9.61;89.35;97488.41;4060366;29;20117;-67
2023/11/05 04:29:22;;;;;;;;;;;;;;;9.61;89.38;97485.72;4060137;29;20026;-67
2023/11/05 04:31:24;;;;;;;;;;;;;;;9.62;89.50;97491.91;4057009;29;20227;-67
2023/11/05 04:33:26;;;;;;;;;;;;;;;9.62;89.26;97495.41;4059524;29;19931;-67
2023/11/05 04:35:30;;;;;;;;;;;;;;;9.63;89.53;97486.25;4060189;29;20010;-67
2023/11/05 04:37:32;;;;;;;;;;;;;;;9.63;89.32;97486.25;4059916;29;20023;-67
2023/11/05 04:39:34;;;;;;;;;;;;;;;9.63;89.48;97483.56;4060008;29;20467;-67
2023/11/05 04:41:36;;;;;;;;;;;;;;;9.64;89.27;97492.47;4059336;29;20043;-67
2023/11/05 04:43:37;;;;;;;;;;;;;;;9.64;89.38;97481.69;4060107;29;20026;-68
2023/11/05 04:45:39;;;;;;;;;;;;;;;9.66;89.53;97484.97;4060124;29;20330;-68
2023/11/05 04:47:41;;;;;;;;;;;;;;;9.67;89.64;97486.56;4059909;29;20010;-67
2023/11/05 04:49:43;;;;;;;;;;;;;;;9.67;89.62;97487.41;4059811;29;20039;-67
2023/11/05 04:51:47;;;;;;;;;;;;;;;9.66;89.82;97485.75;4059711;29;20069;-67
2023/11/05 04:53:48;;;;;;;;;;;;;;;9.67;89.83;97479.31;4060688;29;19931;-67
2023/11/05 04:55:50;;;;;;;;;;;;;;;9.70;89.89;97481.50;4060271;29;20022;-67
2023/11/05 04:57:52;;;;;;;;;;;;;;;9.70;89.44;97483.38;4042547;29;20409;-67
2023/11/05 04:59:54;;;;;;;;;;;;;;;9.71;89.61;97477.72;4059668;29;20027;-67
2023/11/05 05:01:57;;;;;;;;;;;;;;;9.71;89.68;97468.84;4059533;29;20018;-67
2023/11/05 05:03:59;;;;;;;;;;;;;;;9.70;89.56;97467.22;4059220;29;20034;-67
2023/11/05 05:06:01;;;;;;;;;;;;;;;9.70;90.04;97462.66;4059208;29;20629;-67
2023/11/05 05:08:05;;;;;;;;;;;;;;;9.69;90.02;97465.59;4059901;29;20018;-67
2023/11/05 05:10:08;;;;;;;;;;;;;;;9.68;90.16;97462.06;4060523;29;20017;-67
2023/11/05 05:12:09;;;;;;;;;;;;;;;9.69;90.26;97462.91;4057996;29;20013;-67
2023/11/05 05:14:11;;;;;;;;;;;;;;;9.69;90.09;97469.09;4059858;29;19927;-67
2023/11/05 05:16:17;;;;;;;;;;;;;;;9.69;89.82;97461.00;4060282;29;20050;-66
2023/11/05 05:18:19;;;;;;;;;;;;;;;9.71;89.95;97466.16;4059856;29;20014;-68
2023/11/05 05:20:21;;;;;;;;;;;;;;;9.69;89.87;97466.41;4058674;29;20030;-67
2023/11/05 05:22:23;;;;;;;;;;;;;;;9.70;89.59;97467.22;4060296;29;20462;-67
2023/11/05 05:24:28;;;;;;;;;;;;;;;9.68;89.52;97472.84;4059845;29;20018;-67
2023/11/05 05:26:30;;;;;;;;;;;;;;;9.67;90.01;97470.41;4060858;29;20018;-68
2023/11/05 05:28:32;;;;;;;;;;;;;;;9.67;89.97;97473.09;4041679;29;20063;-67
2023/11/05 05:30:34;;;;;;;;;;;;;;;9.65;89.57;97457.19;4058815;29;20023;-67
2023/11/05 05:32:36;;;;;;;;;;;;;;;9.67;89.83;97463.16;4059289;29;20041;-67
2023/11/05 05:34:37;;;;;;;;;;;;;;;9.67;89.71;97463.16;4059730;29;20446;-67
2023/11/05 05:36:39;;;;;;;;;;;;;;;9.66;89.56;97464.22;4058979;29;19937;-67
2023/11/05 05:38:42;;;;;;;;;;;;;;;9.66;89.41;97466.91;4059740;29;20010;-67
2023/11/05 05:40:45;;;;;;;;;;;;;;;9.66;89.75;97466.91;4059193;29;20026;-68
2023/11/05 05:42:47;;;;;;;;;;;;;;;9.65;89.63;97469.84;4059454;29;20041;-67
2023/11/05 05:44:49;;;;;;;;;;;;;;;9.63;89.69;97472.00;4058928;29;20058;-67
2023/11/05 05:46:51;;;;;;;;;;;;;;;9.64;89.48;97465.50;4059684;29;20022;-67
2023/11/05 05:48:52;;;;;;;;;;;;;;;9.66;89.37;97468.78;4059535;29;20014;-67
2023/11/05 05:50:54;;;;;;;;;;;;;;;9.64;89.70;97465.50;4059088;29;19954;-67
2023/11/05 05:52:56;;;;;;;;;;;;;;;9.63;89.35;97469.28;4059330;29;20041;-68
2023/11/05 05:54:58;;;;;;;;;;;;;;;9.63;89.21;97470.09;4042773;29;20510;-67
2023/11/05 05:57:02;;;;;;;;;;;;;;;9.65;89.12;97472.53;4059327;29;20018;-67
2023/11/05 05:59:04;;;;;;;;;;;;;;;9.64;88.94;97466.34;4059343;29;20010;-67
2023/11/05 06:01:06;;;;;;;;;;;;;;;9.63;88.98;97466.59;4059059;29;20026;-67
2023/11/05 06:03:08;;;;;;;;;;;;;;;9.61;89.13;97464.16;4058916;29;20545;-68
2023/11/05 06:05:10;;;;;;;;;;;;;;;9.62;88.97;97462.25;4058909;29;20021;-67
2023/11/05 06:07:11;;;;;;;;;;;;;;;9.60;88.78;97461.72;4058728;29;20022;-67
2023/11/05 06:09:16;;;;;;;;;;;;;;;9.59;88.82;97455.50;4059419;29;19971;-67
2023/11/05 06:11:18;;;;;;;;;;;;;;;9.59;88.53;97446.59;4058347;29;20043;-68
2023/11/05 06:13:21;;;;;;;;;;;;;;;9.57;88.67;97455.75;4059057;29;20018;-68
2023/11/05 06:15:23;;;;;;;;;;;;;;;9.56;88.69;97448.75;4057773;29;20034;-67
2023/11/05 06:17:25;;;;;;;;;;;;;;;9.55;88.58;97447.09;4058848;29;20266;-67
2023/11/05 06:19:27;;;;;;;;;;;;;;;9.55;88.46;97440.91;4058202;29;20022;-67
2023/11/05 06:21:29;;;;;;;;;;;;;;;9.54;88.03;97440.09;4059348;29;20014;-67
2023/11/05 06:23:31;;;;;;;;;;;;;;;9.52;88.42;97439.53;4058752;29;20026;-67
2023/11/05 06:25:33;;;;;;;;;;;;;;;9.51;88.53;97440.59;4058971;29;20018;-67
2023/11/05 06:27:34;;;;;;;;;;;;;;;9.50;88.26;97448.94;4058606;29;20022;-67
2023/11/05 06:29:38;;;;;;;;;;;;;;;9.50;88.38;97446.25;4057529;29;20031;-68
2023/11/05 06:31:40;;;;;;;;;;;;;;;9.47;88.50;97447.56;4057146;29;20343;-67
2023/11/05 06:33:42;;;;;;;;;;;;;;;9.48;88.56;97443.81;4058337;29;20022;-67
2023/11/05 06:35:44;;;;;;;;;;;;;;;9.47;88.63;97441.34;4058920;29;19927;-67
2023/11/05 06:37:46;;;;;;;;;;;;;;;9.47;88.68;97454.81;4057631;29;19931;-67
2023/11/05 06:39:48;;;;;;;;;;;;;;;9.45;88.46;97447.00;4040445;29;20039;-68
2023/11/05 06:41:50;;;;;;;;;;;;;;;9.45;88.77;97449.69;4057032;29;20017;-67
2023/11/05 06:43:52;;;;;;;;;;;;;;;9.45;88.62;97455.06;4058802;29;20048;-68
2023/11/05 06:45:55;;;;;;;;;;;;;;;9.45;88.88;97459.63;4057586;29;20029;-68
2023/11/05 06:47:57;;;;;;;;;;;;;;;9.45;89.01;97444.31;4057841;29;20022;-69
2023/11/05 06:49:59;;;;;;;;;;;;;;;9.44;88.62;97445.34;4056911;29;20030;-69
2023/11/05 06:52:01;;;;;;;;;;;;;;;9.44;88.37;97442.66;4056241;29;20027;-68
2023/11/05 06:54:04;;;;;;;;;;;;;;;9.41;88.60;97429.69;4056355;29;20023;-68
2023/11/05 06:56:06;;;;;;;;;;;;;;;9.45;88.86;97428.13;4056443;29;20471;-69
2023/11/05 06:58:09;;;;;;;;;;;;;;;9.45;88.58;97427.31;4038243;29;20446;-69
2023/11/05 07:00:12;;;;;;;;;;;;;;;9.46;88.80;97423.56;4057333;29;20398;-69
2023/11/05 07:02:15;;;;;;;;;;;;;;;9.46;88.83;97437.81;4056738;29;20030;-69
2023/11/05 07:04:17;;;;;;;;;;;;;;;9.46;88.98;97429.75;4057390;29;20018;-69
2023/11/05 07:06:19;;;;;;;;;;;;;;;9.48;89.15;97432.19;4057436;29;20026;-68
2023/11/05 07:08:21;;;;;;;;;;;;;;;9.49;88.67;97434.63;4056334;29;20043;-69
2023/11/05 07:10:22;;;;;;;;;;;;;;;9.50;88.92;97432.78;4055991;29;20004;-68
2023/11/05 07:12:27;;;;;;;;;;;;;;;9.50;88.84;97433.56;4056480;29;19931;-70
2023/11/05 07:14:29;;;;;;;;;;;;;;;9.52;88.80;97436.81;4057790;29;20022;-70
2023/11/05 07:16:31;;;;;;;;;;;;;;;9.55;88.93;97435.53;4058747;29;20649;-71
2023/11/05 07:18:34;;;;;;;;;;;;;;;9.56;89.18;97434.44;4057556;29;20014;-70
2023/11/05 07:20:36;;;;;;;;;;;;;;;9.59;88.95;97430.44;4058928;29;20030;-70
2023/11/05 07:22:37;;;;;;;;;;;;;;;9.60;88.83;97419.41;4058238;29;20057;-68
2023/11/05 07:24:40;;;;;;;;;;;;;;;9.63;88.62;97413.50;4057807;29;20038;-71
2023/11/05 07:26:43;;;;;;;;;;;;;;;9.66;88.58;97420.28;4057500;29;20022;-69
2023/11/05 07:28:45;;;;;;;;;;;;;;;9.68;88.42;97413.56;4057366;29;20025;-68
2023/11/05 07:30:47;;;;;;;;;;;;;;;9.71;87.95;97412.25;4058235;29;20026;-69
2023/11/05 07:32:49;;;;;;;;;;;;;;;9.72;87.80;97413.91;4056117;29;20014;-68
2023/11/05 07:34:53;;;;;;;;;;;;;;;9.75;87.51;97418.78;4057304;29;20105;-68
2023/11/05 07:36:56;;;;;;;;;;;;;;;9.78;87.55;97423.66;4057376;29;19934;-68
2023/11/05 07:38:58;;;;;;;;;;;;;;;9.81;87.18;97420.47;4057329;29;20019;-68
2023/11/05 07:41:00;;;;;;;;;;;;;;;9.82;87.30;97410.47;4057325;29;20030;-68
2023/11/05 07:43:02;;;;;;;;;;;;;;;9.84;87.39;97422.66;4057852;29;20038;-69
2023/11/05 07:45:05;;;;;;;;;;;;;;;9.85;87.48;97418.88;4057708;29;20013;-68
2023/11/05 07:47:07;;;;;;;;;;;;;;;9.88;87.00;97414.88;4057616;29;20532;-68
2023/11/05 07:49:10;;;;;;;;;;;;;;;9.89;86.96;97417.31;4056979;29;20025;-69
2023/11/05 07:51:17;;;;;;;;;;;;;;;9.91;87.03;97409.78;4057480;29;20018;-68
2023/11/05 07:53:21;;;;;;;;;;;;;;;9.92;86.86;97419.50;4057043;29;20304;-69
2023/11/05 07:55:23;;;;;;;;;;;;;;;9.93;87.03;97420.31;4057524;29;20403;-68
2023/11/05 07:57:26;;;;;;;;;;;;;;;9.95;86.92;97423.53;4056523;29;20474;-69
2023/11/05 07:59:28;;;;;;;;;;;;;;;9.96;87.12;97422.50;4055336;29;20026;-68
2023/11/05 08:01:30;;;;;;;;;;;;;;;9.97;86.86;97418.72;4024059;29;19928;-68
2023/11/05 08:03:31;;;;;;;;;;;;;;;9.98;87.12;97425.72;4055551;29;20117;-67
2023/11/05 08:05:34;;;;;;;;;;;;;;;10.00;87.02;97433.56;4056536;29;20039;-68
2023/11/05 08:07:37;;;;;;;;;;;;;;;10.00;86.72;97430.88;4056470;29;20022;-68
2023/11/05 08:09:38;;;;;;;;;;;;;;;10.01;86.45;97435.19;4056183;29;20021;-69
2023/11/05 08:11:40;;;;;;;;;;;;;;;10.02;86.25;97443.03;4056647;29;19931;-69
2023/11/05 08:13:43;;;;;;;;;;;;;;;10.03;85.79;97431.19;4055834;29;20450;-67
2023/11/05 08:15:45;;;;;;;;;;;;;;;10.04;85.59;97438.19;4057041;29;19927;-68
2023/11/05 08:17:46;;;;;;;;;;;;;;;10.05;85.75;97422.84;4056436;29;19931;-68
2023/11/05 08:19:48;;;;;;;;;;;;;;;10.07;85.63;97423.41;4041123;29;20018;-68
2023/11/05 08:21:50;;;;;;;;;;;;;;;10.05;85.40;97429.06;4056573;29;20018;-68
2023/11/05 08:23:53;;;;;;;;;;;;;;;10.07;85.49;97423.41;4056501;29;20026;-67
2023/11/05 08:25:56;;;;;;;;;;;;;;;10.06;85.10;97428.00;4057830;29;20022;-68
2023/11/05 08:27:58;;;;;;;;;;;;;;;10.08;85.17;97425.84;4056773;29;20014;-68
2023/11/05 08:30:00;;;;;;;;;;;;;;;10.08;85.11;97438.53;4056171;29;20597;-68
2023/11/05 08:32:02;;;;;;;;;;;;;;;10.07;85.01;97440.38;4040218;29;20022;-68
2023/11/05 08:34:04;;;;;;;;;;;;;;;10.07;85.14;97436.88;4057528;29;20029;-68
2023/11/05 08:36:09;;;;;;;;;;;;;;;10.07;84.90;97431.50;4057248;29;19927;-69
2023/11/05 08:38:12;;;;;;;;;;;;;;;10.08;84.73;97442.03;4056650;29;19927;-68
2023/11/05 08:40:16;;;;;;;;;;;;;;;10.09;85.06;97437.44;4059438;29;20018;-69
2023/11/05 08:42:20;;;;;;;;;;;;;;;10.08;85.20;97433.13;4059572;29;20065;-69
2023/11/05 08:44:22;;;;;;;;;;;;;;;10.08;85.17;97439.31;4060633;29;20030;-66
2023/11/05 08:46:24;;;;;;;;;;;;;;;10.09;85.58;97438.28;4059850;29;20010;-67
2023/11/05 08:48:26;;;;;;;;;;;;;;;10.09;85.26;97448.22;4059501;29;20022;-67
2023/11/05 08:50:28;;;;;;;;;;;;;;;10.09;85.45;97448.22;4059947;29;20029;-67
2023/11/05 08:52:31;;;;;;;;;;;;;;;10.09;85.69;97453.63;4058518;29;20010;-66
2023/11/05 08:54:33;;;;;;;;;;;;;;;10.09;85.80;97454.44;4060185;29;20376;-67
2023/11/05 08:56:36;;;;;;;;;;;;;;;10.08;86.12;97447.41;4059768;29;20385;-66
2023/11/05 08:58:39;;;;;;;;;;;;;;;10.09;86.14;97448.22;4058236;29;20026;-66
2023/11/05 09:00:41;;;;;;;;;;;;;;;10.09;86.00;97454.44;4057143;29;20430;-66
2023/11/05 09:02:43;;;;;;;;;;;;;;;10.08;86.13;97450.13;4058345;29;20049;-67
2023/11/05 09:04:45;;;;;;;;;;;;;;;10.10;86.20;97455.25;4058443;29;20034;-66
2023/11/05 09:06:46;;;;;;;;;;;;;;;10.09;86.26;97456.31;4059190;29;20038;-67
2023/11/05 09:08:48;;;;;;;;;;;;;;;10.09;86.21;97456.31;4059630;29;20379;-66
2023/11/05 09:10:50;;;;;;;;;;;;;;;10.09;86.42;97459.00;4059322;29;20478;-67
2023/11/05 09:12:54;;;;;;;;;;;;;;;10.09;86.41;97453.63;4059592;29;20026;-67
2023/11/05 09:14:57;;;;;;;;;;;;;;;10.10;86.40;97455.25;4060048;29;20223;-67
2023/11/05 09:16:59;;;;;;;;;;;;;;;10.08;86.40;97449.31;4059792;29;20018;-66
2023/11/05 09:19:02;;;;;;;;;;;;;;;10.09;86.29;97453.63;4059925;29;19931;-65
2023/11/05 09:21:05;;;;;;;;;;;;;;;10.09;86.56;97454.44;4059074;29;20030;-67
2023/11/05 09:23:07;;;;;;;;;;;;;;;10.09;86.75;97450.91;4059055;29;20034;-67
2023/11/05 09:25:09;;;;;;;;;;;;;;;10.10;86.87;97453.34;4059066;29;20022;-67
2023/11/05 09:27:11;;;;;;;;;;;;;;;10.08;87.20;97444.72;4059565;29;20019;-66
2023/11/05 09:29:15;;;;;;;;;;;;;;;10.10;87.23;97447.16;4059454;29;20023;-67
2023/11/05 09:31:18;;;;;;;;;;;;;;;10.12;87.29;97433.44;4059755;29;20014;-67
2023/11/05 09:33:21;;;;;;;;;;;;;;;10.12;87.32;97444.22;4060209;29;19939;-67
2023/11/05 09:35:24;;;;;;;;;;;;;;;10.13;87.57;97443.16;4023237;29;20393;-67
2023/11/05 09:37:26;;;;;;;;;;;;;;;10.13;87.42;97445.84;4059682;29;20450;-66
2023/11/05 09:39:28;;;;;;;;;;;;;;;10.12;87.72;97442.31;4059430;29;20502;-66
2023/11/05 09:41:33;;;;;;;;;;;;;;;10.14;87.55;97439.38;4058370;29;20022;-67
2023/11/05 09:43:35;;;;;;;;;;;;;;;10.15;87.40;97441.81;4059025;29;20026;-66
2023/11/05 09:45:37;;;;;;;;;;;;;;;10.16;86.73;97439.94;4058662;29;20469;-66
2023/11/05 09:47:40;;;;;;;;;;;;;;;10.17;87.10;97446.94;4058764;29;20022;-67
2023/11/05 09:49:42;;;;;;;;;;;;;;;10.18;86.44;97451.28;4058529;29;20014;-66
2023/11/05 09:51:47;;;;;;;;;;;;;;;10.19;86.20;97451.03;4058875;29;20030;-66
2023/11/05 09:53:49;;;;;;;;;;;;;;;10.21;86.31;97450.78;4059400;29;20022;-67
2023/11/05 09:55:51;;;;;;;;;;;;;;;10.21;86.50;97448.88;4059371;29;20018;-67
2023/11/05 09:57:52;;;;;;;;;;;;;;;10.22;87.32;97447.00;4059361;29;20022;-66
2023/11/05 09:59:54;;;;;;;;;;;;;;;10.22;87.39;97437.03;4058830;29;19927;-67
2023/11/05 10:01:56;;;;;;;;;;;;;;;10.23;87.42;97440.53;4058903;29;20011;-67
2023/11/05 10:03:58;;;;;;;;;;;;;;;10.24;86.83;97437.59;4058671;29;20031;-67
2023/11/05 10:06:00;;;;;;;;;;;;;;;10.23;86.84;97441.34;4059179;29;20014;-66
2023/11/05 10:08:05;;;;;;;;;;;;;;;10.25;87.56;97449.19;4026789;29;20030;-66
2023/11/05 10:10:08;;;;;;;;;;;;;;;10.25;87.74;97438.38;4058296;29;20038;-66
2023/11/05 10:12:10;;;;;;;;;;;;;;;10.26;87.81;97435.44;4057685;29;20281;-67
2023/11/05 10:14:11;;;;;;;;;;;;;;;10.27;88.13;97441.66;4058482;29;20022;-67
2023/11/05 10:16:13;;;;;;;;;;;;;;;10.26;87.91;97437.31;4059096;29;20030;-66
2023/11/05 10:18:17;;;;;;;;;;;;;;;10.27;87.74;97431.69;4058457;29;20442;-66
2023/11/05 10:20:19;;;;;;;;;;;;;;;10.28;88.17;97435.19;4058136;29;19927;-67
2023/11/05 10:22:21;;;;;;;;;;;;;;;10.28;87.83;97429.78;4026703;29;20403;-67
2023/11/05 10:24:39;;;;;;;;;;;;;;;10.29;87.85;97426.03;4058865;29;20022;-67
2023/11/05 10:26:42;;;;;;;;;;;;;;;10.29;87.83;97423.34;4058302;29;20037;-66
2023/11/05 10:28:45;;;;;;;;;;;;;;;10.25;87.72;97423.03;4058031;29;20026;-66
2023/11/05 10:30:47;;;;;;;;;;;;;;;10.32;87.63;97424.72;4058622;29;20050;-67
2023/11/05 10:32:51;;;;;;;;;;;;;;;10.32;87.59;97433.59;4058848;29;20022;-67
2023/11/05 10:34:55;;;;;;;;;;;;;;;10.34;87.95;97434.19;4057509;29;20034;-67
2023/11/05 10:36:57;;;;;;;;;;;;;;;10.34;87.21;97423.41;4057429;29;20014;-66
2023/11/05 10:38:59;;;;;;;;;;;;;;;10.34;87.16;97420.69;4058307;29;20030;-66
2023/11/05 10:41:01;;;;;;;;;;;;;;;10.36;86.81;97426.66;4058037;29;20011;-67
2023/11/05 10:43:04;;;;;;;;;;;;;;;10.36;86.39;97426.66;4056680;29;20384;-66